sensor_id;sensor_type;location;lat;lon;timestamp;P1;P2;P0
65574;PMS5003;52216;54.942;73.394;2023-07-30T00:02:22;7.00;7.00;4.00
65574;PMS5003;52216;54.942;73.394;2023-07-30T00:05:24;6.00;6.00;3.00
65574;PMS5003;52216;54.942;73.394;2023-07-30T00:08:26;5.00;5.00;3.00
65574;PMS5003;52216;54.942;73.394;2023-07-30T00:11:28;6.00;6.00;3.00
65574;PMS5003;52216;54.942;73.394;2023-07-30T00:14:30;7.00;7.00;2.00
65574;PMS5003;52216;54.942;73.394;2023-07-30T00:17:33;7.00;7.00;3.00
65574;PMS5003;52216;54.942;73.394;2023-07-30T00:20:35;8.25;7.00;3.00
65574;PMS5003;52216;54.942;73.394;2023-07-30T00:23:38;7.00;7.00;4.00
65574;PMS5003;52216;54.942;73.394;2023-07-30T00:26:40;6.00;6.00;3.00
65574;PMS5003;52216;54.942;73.394;2023-07-30T00:29:43;6.00;4.33;3.00
65574;PMS5003;52216;54.942;73.394;2023-07-30T00:32:45;5.75;5.75;3.75
65574;PMS5003;52216;54.942;73.394;2023-07-30T00:35:47;5.33;5.33;3.00
65574;PMS5003;52216;54.942;73.394;2023-07-30T00:38:49;8.00;8.00;5.00
65574;PMS5003;52216;54.942;73.394;2023-07-30T00:41:51;5.50;5.50;4.00
65574;PMS5003;52216;54.942;73.394;2023-07-30T00:44:53;8.00;7.50;5.00
65574;PMS5003;52216;54.942;73.394;2023-07-30T00:47:56;7.00;7.00;3.00
65574;PMS5003;52216;54.942;73.394;2023-07-30T00:51:00;5.00;5.00;1.00
65574;PMS5003;52216;54.942;73.394;2023-07-30T00:54:02;5.00;5.00;1.00
65574;PMS5003;52216;54.942;73.394;2023-07-30T00:57:06;6.25;5.25;2.00
65574;PMS5003;52216;54.942;73.394;2023-07-30T01:00:09;5.00;5.00;3.00
65574;PMS5003;52216;54.942;73.394;2023-07-30T01:03:11;7.00;6.00;2.00
65574;PMS5003;52216;54.942;73.394;2023-07-30T01:06:22;7.00;6.00;1.00
65574;PMS5003;52216;54.942;73.394;2023-07-30T01:09:25;6.00;5.00;2.00
65574;PMS5003;52216;54.942;73.394;2023-07-30T01:12:29;7.75;7.75;3.00
65574;PMS5003;52216;54.942;73.394;2023-07-30T01:16:00;8.00;7.00;3.00
65574;PMS5003;52216;54.942;73.394;2023-07-30T01:19:03;6.00;5.00;3.50
65574;PMS5003;52216;54.942;73.394;2023-07-30T01:22:06;5.00;5.00;2.00
65574;PMS5003;52216;54.942;73.394;2023-07-30T01:25:08;5.00;5.00;3.00
65574;PMS5003;52216;54.942;73.394;2023-07-30T01:28:12;5.00;5.00;2.00
65574;PMS5003;52216;54.942;73.394;2023-07-30T01:31:18;6.00;6.00;3.00
65574;PMS5003;52216;54.942;73.394;2023-07-30T01:34:26;7.00;6.00;3.00
65574;PMS5003;52216;54.942;73.394;2023-07-30T01:37:29;4.75;4.75;2.75
65574;PMS5003;52216;54.942;73.394;2023-07-30T01:40:33;4.25;4.25;1.00
65574;PMS5003;52216;54.942;73.394;2023-07-30T01:43:35;6.33;6.00;3.00
65574;PMS5003;52216;54.942;73.394;2023-07-30T01:46:38;7.00;7.00;3.00
65574;PMS5003;52216;54.942;73.394;2023-07-30T01:49:40;6.00;5.00;4.00
65574;PMS5003;52216;54.942;73.394;2023-07-30T01:52:42;6.67;6.67;3.00
65574;PMS5003;52216;54.942;73.394;2023-07-30T01:55:44;6.50;6.50;2.00
65574;PMS5003;52216;54.942;73.394;2023-07-30T01:58:47;6.00;6.00;1.50
65574;PMS5003;52216;54.942;73.394;2023-07-30T02:01:50;7.00;7.00;2.75
65574;PMS5003;52216;54.942;73.394;2023-07-30T02:04:52;5.00;4.50;2.00
65574;PMS5003;52216;54.942;73.394;2023-07-30T02:07:57;7.00;6.75;1.75
65574;PMS5003;52216;54.942;73.394;2023-07-30T02:10:59;7.00;6.25;2.75
65574;PMS5003;52216;54.942;73.394;2023-07-30T02:14:02;6.00;6.00;1.00
65574;PMS5003;52216;54.942;73.394;2023-07-30T02:17:04;9.50;7.75;3.50
65574;PMS5003;52216;54.942;73.394;2023-07-30T02:20:07;7.00;7.00;2.00
65574;PMS5003;52216;54.942;73.394;2023-07-30T02:23:09;8.00;7.75;2.75
65574;PMS5003;52216;54.942;73.394;2023-07-30T02:26:12;6.75;5.00;3.00
65574;PMS5003;52216;54.942;73.394;2023-07-30T02:29:14;6.00;5.25;3.00
65574;PMS5003;52216;54.942;73.394;2023-07-30T02:32:16;5.00;5.00;3.00
65574;PMS5003;52216;54.942;73.394;2023-07-30T02:35:18;7.00;7.00;4.00
65574;PMS5003;52216;54.942;73.394;2023-07-30T02:38:21;5.25;5.00;3.00
65574;PMS5003;52216;54.942;73.394;2023-07-30T02:41:23;6.00;6.00;3.00
65574;PMS5003;52216;54.942;73.394;2023-07-30T02:44:24;6.25;6.25;2.00
65574;PMS5003;52216;54.942;73.394;2023-07-30T02:47:27;6.00;6.00;2.00
65574;PMS5003;52216;54.942;73.394;2023-07-30T02:50:30;5.25;5.00;2.00
65574;PMS5003;52216;54.942;73.394;2023-07-30T02:53:33;7.00;6.00;4.00
65574;PMS5003;52216;54.942;73.394;2023-07-30T02:56:35;8.50;7.75;3.00
65574;PMS5003;52216;54.942;73.394;2023-07-30T02:59:38;7.00;6.00;3.00
65574;PMS5003;52216;54.942;73.394;2023-07-30T03:02:40;8.00;6.25;2.00
65574;PMS5003;52216;54.942;73.394;2023-07-30T03:05:43;6.00;6.00;3.00
65574;PMS5003;52216;54.942;73.394;2023-07-30T03:08:45;10.00;8.50;3.75
65574;PMS5003;52216;54.942;73.394;2023-07-30T03:11:51;8.00;7.00;4.00
65574;PMS5003;52216;54.942;73.394;2023-07-30T03:14:54;6.00;6.00;3.00
65574;PMS5003;52216;54.942;73.394;2023-07-30T03:17:55;6.00;6.00;3.00
65574;PMS5003;52216;54.942;73.394;2023-07-30T03:20:58;8.75;8.75;3.25
65574;PMS5003;52216;54.942;73.394;2023-07-30T03:24:02;7.00;7.00;3.00
65574;PMS5003;52216;54.942;73.394;2023-07-30T03:27:04;8.25;8.25;4.75
65574;PMS5003;52216;54.942;73.394;2023-07-30T03:30:07;6.25;6.25;4.00
65574;PMS5003;52216;54.942;73.394;2023-07-30T03:33:09;6.00;6.00;2.00
65574;PMS5003;52216;54.942;73.394;2023-07-30T03:36:12;8.50;8.50;3.50
65574;PMS5003;52216;54.942;73.394;2023-07-30T03:39:17;7.00;6.50;3.00
65574;PMS5003;52216;54.942;73.394;2023-07-30T03:42:19;6.25;6.00;3.00
65574;PMS5003;52216;54.942;73.394;2023-07-30T03:45:21;8.00;7.00;3.00
65574;PMS5003;52216;54.942;73.394;2023-07-30T03:48:23;9.00;8.25;5.00
65574;PMS5003;52216;54.942;73.394;2023-07-30T03:51:25;9.25;8.00;4.25
65574;PMS5003;52216;54.942;73.394;2023-07-30T03:54:27;7.00;7.00;5.00
65574;PMS5003;52216;54.942;73.394;2023-07-30T03:57:29;7.67;7.67;4.00
65574;PMS5003;52216;54.942;73.394;2023-07-30T04:00:32;8.00;8.00;3.75
65574;PMS5003;52216;54.942;73.394;2023-07-30T04:03:35;8.00;8.00;4.00
65574;PMS5003;52216;54.942;73.394;2023-07-30T04:06:39;9.00;9.00;5.00
65574;PMS5003;52216;54.942;73.394;2023-07-30T04:09:43;8.25;8.00;3.00
65574;PMS5003;52216;54.942;73.394;2023-07-30T04:12:46;7.00;7.00;4.00
65574;PMS5003;52216;54.942;73.394;2023-07-30T04:15:48;8.25;8.00;5.75
65574;PMS5003;52216;54.942;73.394;2023-07-30T04:18:50;11.50;10.50;6.00
65574;PMS5003;52216;54.942;73.394;2023-07-30T04:22:25;7.00;7.00;3.33
65574;PMS5003;52216;54.942;73.394;2023-07-30T04:25:27;7.75;7.75;4.00
65574;PMS5003;52216;54.942;73.394;2023-07-30T04:28:31;7.50;7.00;4.00
65574;PMS5003;52216;54.942;73.394;2023-07-30T04:31:33;8.00;7.00;4.00
65574;PMS5003;52216;54.942;73.394;2023-07-30T04:34:35;11.50;9.00;6.00
65574;PMS5003;52216;54.942;73.394;2023-07-30T04:37:38;7.75;7.25;3.00
65574;PMS5003;52216;54.942;73.394;2023-07-30T04:40:40;8.75;8.50;3.00
65574;PMS5003;52216;54.942;73.394;2023-07-30T04:43:43;8.67;8.00;5.00
65574;PMS5003;52216;54.942;73.394;2023-07-30T04:46:45;9.00;9.00;4.00
65574;PMS5003;52216;54.942;73.394;2023-07-30T04:49:48;9.00;9.00;4.00
65574;PMS5003;52216;54.942;73.394;2023-07-30T04:52:51;9.00;9.00;5.00
65574;PMS5003;52216;54.942;73.394;2023-07-30T04:55:56;7.00;7.00;4.00
65574;PMS5003;52216;54.942;73.394;2023-07-30T04:59:00;8.50;8.50;5.00
65574;PMS5003;52216;54.942;73.394;2023-07-30T05:02:04;7.75;7.75;4.00
65574;PMS5003;52216;54.942;73.394;2023-07-30T05:05:06;7.00;7.00;4.00
65574;PMS5003;52216;54.942;73.394;2023-07-30T05:08:09;7.75;7.75;5.00
65574;PMS5003;52216;54.942;73.394;2023-07-30T05:11:12;10.00;9.00;6.67
65574;PMS5003;52216;54.942;73.394;2023-07-30T05:14:14;9.00;9.00;6.00
65574;PMS5003;52216;54.942;73.394;2023-07-30T05:17:19;8.33;8.33;5.00
65574;PMS5003;52216;54.942;73.394;2023-07-30T05:20:22;7.67;7.67;4.00
65574;PMS5003;52216;54.942;73.394;2023-07-30T05:23:24;9.00;7.75;4.25
65574;PMS5003;52216;54.942;73.394;2023-07-30T05:26:27;7.00;6.75;4.00
65574;PMS5003;52216;54.942;73.394;2023-07-30T05:29:32;7.67;7.00;3.00
65574;PMS5003;52216;54.942;73.394;2023-07-30T05:32:35;9.00;9.00;4.67
65574;PMS5003;52216;54.942;73.394;2023-07-30T05:35:37;9.00;8.75;4.00
65574;PMS5003;52216;54.942;73.394;2023-07-30T05:38:39;10.25;10.25;5.00
65574;PMS5003;52216;54.942;73.394;2023-07-30T05:41:41;8.00;8.00;4.00
65574;PMS5003;52216;54.942;73.394;2023-07-30T05:44:44;8.00;7.00;4.00
65574;PMS5003;52216;54.942;73.394;2023-07-30T05:47:46;8.00;8.00;4.00
65574;PMS5003;52216;54.942;73.394;2023-07-30T05:50:49;8.50;8.00;4.25
65574;PMS5003;52216;54.942;73.394;2023-07-30T05:53:51;9.00;8.00;4.00
65574;PMS5003;52216;54.942;73.394;2023-07-30T05:56:53;9.00;9.00;5.00
65574;PMS5003;52216;54.942;73.394;2023-07-30T05:59:57;8.75;8.75;5.00
65574;PMS5003;52216;54.942;73.394;2023-07-30T06:02:59;8.00;8.00;5.00
65574;PMS5003;52216;54.942;73.394;2023-07-30T06:06:01;7.00;7.00;3.75
65574;PMS5003;52216;54.942;73.394;2023-07-30T06:09:05;11.00;11.00;5.00
65574;PMS5003;52216;54.942;73.394;2023-07-30T06:12:08;10.00;10.00;5.00
65574;PMS5003;52216;54.942;73.394;2023-07-30T06:15:10;10.75;8.25;4.00
65574;PMS5003;52216;54.942;73.394;2023-07-30T06:18:12;8.00;7.00;4.00
65574;PMS5003;52216;54.942;73.394;2023-07-30T06:21:15;7.00;7.00;4.00
65574;PMS5003;52216;54.942;73.394;2023-07-30T06:24:18;8.00;8.00;4.00
65574;PMS5003;52216;54.942;73.394;2023-07-30T06:27:20;11.00;11.00;4.25
65574;PMS5003;52216;54.942;73.394;2023-07-30T06:30:23;10.00;10.00;4.00
65574;PMS5003;52216;54.942;73.394;2023-07-30T06:33:30;10.00;9.25;5.00
65574;PMS5003;52216;54.942;73.394;2023-07-30T06:36:32;10.00;10.00;4.50
65574;PMS5003;52216;54.942;73.394;2023-07-30T06:39:36;11.00;10.00;5.33
65574;PMS5003;52216;54.942;73.394;2023-07-30T06:42:38;8.00;7.00;4.00
65574;PMS5003;52216;54.942;73.394;2023-07-30T06:45:40;12.00;10.67;6.00
65574;PMS5003;52216;54.942;73.394;2023-07-30T06:48:43;9.50;9.50;4.50
65574;PMS5003;52216;54.942;73.394;2023-07-30T06:51:45;8.33;8.33;4.00
65574;PMS5003;52216;54.942;73.394;2023-07-30T06:54:47;11.00;9.00;5.00
65574;PMS5003;52216;54.942;73.394;2023-07-30T06:57:49;9.00;7.25;5.00
65574;PMS5003;52216;54.942;73.394;2023-07-30T07:00:51;10.00;9.50;5.00
65574;PMS5003;52216;54.942;73.394;2023-07-30T07:03:53;9.00;9.00;5.00
65574;PMS5003;52216;54.942;73.394;2023-07-30T07:06:56;8.75;8.75;4.00
65574;PMS5003;52216;54.942;73.394;2023-07-30T07:09:58;7.00;7.00;3.00
65574;PMS5003;52216;54.942;73.394;2023-07-30T07:13:01;7.00;7.00;4.00
65574;PMS5003;52216;54.942;73.394;2023-07-30T07:16:04;8.00;8.00;4.00
65574;PMS5003;52216;54.942;73.394;2023-07-30T07:19:07;7.00;7.00;3.00
65574;PMS5003;52216;54.942;73.394;2023-07-30T07:22:09;8.25;8.25;5.00
65574;PMS5003;52216;54.942;73.394;2023-07-30T07:25:12;7.75;7.75;4.00
65574;PMS5003;52216;54.942;73.394;2023-07-30T07:28:55;9.80;8.80;4.80
65574;PMS5003;52216;54.942;73.394;2023-07-30T07:31:58;10.00;9.00;5.00
65574;PMS5003;52216;54.942;73.394;2023-07-30T07:35:01;8.00;8.00;5.00
65574;PMS5003;52216;54.942;73.394;2023-07-30T07:38:05;8.00;8.00;4.00
65574;PMS5003;52216;54.942;73.394;2023-07-30T07:41:13;7.00;7.00;4.00
65574;PMS5003;52216;54.942;73.394;2023-07-30T07:44:18;9.50;7.00;4.00
65574;PMS5003;52216;54.942;73.394;2023-07-30T07:47:20;8.00;8.00;4.00
65574;PMS5003;52216;54.942;73.394;2023-07-30T07:50:23;9.00;9.00;4.00
65574;PMS5003;52216;54.942;73.394;2023-07-30T07:53:25;8.00;8.00;3.00
65574;PMS5003;52216;54.942;73.394;2023-07-30T07:56:29;9.00;9.00;4.00
65574;PMS5003;52216;54.942;73.394;2023-07-30T07:59:32;9.25;9.00;5.00
65574;PMS5003;52216;54.942;73.394;2023-07-30T08:02:34;7.50;6.50;3.00
65574;PMS5003;52216;54.942;73.394;2023-07-30T08:05:36;6.50;6.25;3.00
65574;PMS5003;52216;54.942;73.394;2023-07-30T08:08:38;8.00;7.00;3.50
65574;PMS5003;52216;54.942;73.394;2023-07-30T08:11:40;9.00;8.00;4.00
65574;PMS5003;52216;54.942;73.394;2023-07-30T08:14:42;9.50;8.00;5.00
65574;PMS5003;52216;54.942;73.394;2023-07-30T08:17:44;11.00;9.75;4.50
65574;PMS5003;52216;54.942;73.394;2023-07-30T08:20:47;8.25;8.00;4.00
65574;PMS5003;52216;54.942;73.394;2023-07-30T08:23:51;8.50;8.00;3.00
65574;PMS5003;52216;54.942;73.394;2023-07-30T08:26:53;9.00;9.00;4.00
65574;PMS5003;52216;54.942;73.394;2023-07-30T08:29:55;7.00;7.00;4.00
65574;PMS5003;52216;54.942;73.394;2023-07-30T08:32:58;12.67;11.67;5.00
65574;PMS5003;52216;54.942;73.394;2023-07-30T08:36:00;9.75;9.75;4.00
65574;PMS5003;52216;54.942;73.394;2023-07-30T08:39:07;7.00;7.00;4.00
65574;PMS5003;52216;54.942;73.394;2023-07-30T08:42:10;11.00;8.00;6.00
65574;PMS5003;52216;54.942;73.394;2023-07-30T08:45:12;9.50;9.00;5.00
65574;PMS5003;52216;54.942;73.394;2023-07-30T08:48:14;7.50;7.50;5.00
65574;PMS5003;52216;54.942;73.394;2023-07-30T08:51:16;6.00;5.25;2.00
65574;PMS5003;52216;54.942;73.394;2023-07-30T08:54:19;8.25;7.00;4.00
65574;PMS5003;52216;54.942;73.394;2023-07-30T08:57:24;7.00;7.00;4.00
65574;PMS5003;52216;54.942;73.394;2023-07-30T09:00:27;8.00;7.00;4.00
65574;PMS5003;52216;54.942;73.394;2023-07-30T09:03:32;8.00;7.00;4.00
65574;PMS5003;52216;54.942;73.394;2023-07-30T09:06:37;9.75;9.75;5.00
65574;PMS5003;52216;54.942;73.394;2023-07-30T09:09:40;8.00;7.25;5.00
65574;PMS5003;52216;54.942;73.394;2023-07-30T09:12:43;7.25;7.25;3.25
65574;PMS5003;52216;54.942;73.394;2023-07-30T09:15:47;10.25;10.25;5.00
65574;PMS5003;52216;54.942;73.394;2023-07-30T09:18:51;11.75;10.75;5.00
65574;PMS5003;52216;54.942;73.394;2023-07-30T09:21:55;12.00;11.00;6.00
65574;PMS5003;52216;54.942;73.394;2023-07-30T09:25:00;12.00;12.00;5.00
65574;PMS5003;52216;54.942;73.394;2023-07-30T09:28:05;11.00;11.00;6.00
65574;PMS5003;52216;54.942;73.394;2023-07-30T09:31:08;11.00;10.00;6.00
65574;PMS5003;52216;54.942;73.394;2023-07-30T09:34:10;8.25;7.75;5.00
65574;PMS5003;52216;54.942;73.394;2023-07-30T09:37:16;7.00;7.00;4.00
65574;PMS5003;52216;54.942;73.394;2023-07-30T09:40:21;10.75;10.25;5.00
65574;PMS5003;52216;54.942;73.394;2023-07-30T09:43:32;12.25;12.25;5.00
65574;PMS5003;52216;54.942;73.394;2023-07-30T09:46:41;12.00;11.00;4.00
65574;PMS5003;52216;54.942;73.394;2023-07-30T09:49:47;7.33;7.33;4.00
65574;PMS5003;52216;54.942;73.394;2023-07-30T09:52:49;9.00;9.00;5.00
65574;PMS5003;52216;54.942;73.394;2023-07-30T09:55:51;10.00;10.00;4.00
65574;PMS5003;52216;54.942;73.394;2023-07-30T09:58:53;7.00;7.00;3.00
65574;PMS5003;52216;54.942;73.394;2023-07-30T10:01:56;6.25;6.25;3.00
65574;PMS5003;52216;54.942;73.394;2023-07-30T10:04:59;9.00;8.00;3.00
65574;PMS5003;52216;54.942;73.394;2023-07-30T10:08:08;6.50;6.50;4.00
65574;PMS5003;52216;54.942;73.394;2023-07-30T10:11:12;6.00;6.00;4.00
65574;PMS5003;52216;54.942;73.394;2023-07-30T10:14:15;7.75;6.75;3.50
65574;PMS5003;52216;54.942;73.394;2023-07-30T10:17:18;7.00;7.00;3.00
65574;PMS5003;52216;54.942;73.394;2023-07-30T10:20:22;5.00;5.00;2.00
65574;PMS5003;52216;54.942;73.394;2023-07-30T10:23:28;6.75;6.75;3.00
65574;PMS5003;52216;54.942;73.394;2023-07-30T10:26:31;5.75;5.75;3.00
65574;PMS5003;52216;54.942;73.394;2023-07-30T10:29:38;7.00;6.25;4.00
65574;PMS5003;52216;54.942;73.394;2023-07-30T10:35:59;6.50;6.50;5.00
65574;PMS5003;52216;54.942;73.394;2023-07-30T10:39:12;5.75;5.75;4.50
65574;PMS5003;52216;54.942;73.394;2023-07-30T10:42:15;6.50;6.50;3.00
65574;PMS5003;52216;54.942;73.394;2023-07-30T10:45:23;4.00;4.00;2.00
65574;PMS5003;52216;54.942;73.394;2023-07-30T10:48:37;7.00;6.75;3.00
65574;PMS5003;52216;54.942;73.394;2023-07-30T10:51:40;6.00;5.50;2.00
65574;PMS5003;52216;54.942;73.394;2023-07-30T10:54:43;6.00;6.00;2.00
65574;PMS5003;52216;54.942;73.394;2023-07-30T10:57:46;7.00;6.50;3.00
65574;PMS5003;52216;54.942;73.394;2023-07-30T11:00:50;7.00;6.00;4.00
65574;PMS5003;52216;54.942;73.394;2023-07-30T11:03:52;5.75;5.75;3.00
65574;PMS5003;52216;54.942;73.394;2023-07-30T11:06:55;5.67;5.67;3.00
65574;PMS5003;52216;54.942;73.394;2023-07-30T11:09:58;5.00;5.00;2.00
65574;PMS5003;52216;54.942;73.394;2023-07-30T11:13:02;7.00;7.00;3.00
65574;PMS5003;52216;54.942;73.394;2023-07-30T11:16:05;7.25;7.00;4.00
65574;PMS5003;52216;54.942;73.394;2023-07-30T11:19:09;8.00;8.00;4.00
65574;PMS5003;52216;54.942;73.394;2023-07-30T11:22:12;7.00;7.00;4.00
65574;PMS5003;52216;54.942;73.394;2023-07-30T11:25:18;8.00;8.00;4.00
65574;PMS5003;52216;54.942;73.394;2023-07-30T11:28:28;8.00;7.00;3.00
65574;PMS5003;52216;54.942;73.394;2023-07-30T11:31:31;6.00;6.00;3.00
65574;PMS5003;52216;54.942;73.394;2023-07-30T11:34:34;7.00;7.00;4.00
65574;PMS5003;52216;54.942;73.394;2023-07-30T11:37:40;10.50;10.50;5.75
65574;PMS5003;52216;54.942;73.394;2023-07-30T11:40:44;10.00;10.00;5.00
65574;PMS5003;52216;54.942;73.394;2023-07-30T11:43:46;7.00;7.00;4.00
65574;PMS5003;52216;54.942;73.394;2023-07-30T11:46:55;9.00;8.00;4.00
65574;PMS5003;52216;54.942;73.394;2023-07-30T11:49:57;8.25;6.25;4.00
65574;PMS5003;52216;54.942;73.394;2023-07-30T11:53:00;8.00;7.50;4.00
65574;PMS5003;52216;54.942;73.394;2023-07-30T11:56:02;7.00;7.00;3.00
65574;PMS5003;52216;54.942;73.394;2023-07-30T11:59:12;8.75;8.75;4.00
65574;PMS5003;52216;54.942;73.394;2023-07-30T12:02:17;10.75;10.75;4.25
65574;PMS5003;52216;54.942;73.394;2023-07-30T12:05:20;7.00;7.00;4.00
65574;PMS5003;52216;54.942;73.394;2023-07-30T12:08:45;9.00;9.00;5.00
65574;PMS5003;52216;54.942;73.394;2023-07-30T12:12:00;9.50;9.50;6.00
65574;PMS5003;52216;54.942;73.394;2023-07-30T12:15:09;10.50;10.50;6.00
65574;PMS5003;52216;54.942;73.394;2023-07-30T12:18:16;10.00;9.00;5.00
65574;PMS5003;52216;54.942;73.394;2023-07-30T12:21:18;10.75;10.75;5.00
65574;PMS5003;52216;54.942;73.394;2023-07-30T12:24:21;10.00;9.00;4.00
65574;PMS5003;52216;54.942;73.394;2023-07-30T12:27:23;8.00;8.00;5.25
65574;PMS5003;52216;54.942;73.394;2023-07-30T12:30:26;6.25;6.25;4.00
65574;PMS5003;52216;54.942;73.394;2023-07-30T12:33:29;7.00;7.00;3.00
65574;PMS5003;52216;54.942;73.394;2023-07-30T12:36:31;13.00;10.00;4.50
65574;PMS5003;52216;54.942;73.394;2023-07-30T12:39:33;14.00;12.50;5.00
65574;PMS5003;52216;54.942;73.394;2023-07-30T12:42:35;9.25;9.25;3.00
65574;PMS5003;52216;54.942;73.394;2023-07-30T12:45:38;8.00;7.25;3.00
65574;PMS5003;52216;54.942;73.394;2023-07-30T12:48:41;7.00;7.00;4.00
65574;PMS5003;52216;54.942;73.394;2023-07-30T12:51:43;8.00;7.00;3.50
65574;PMS5003;52216;54.942;73.394;2023-07-30T12:54:45;6.00;6.00;3.75
65574;PMS5003;52216;54.942;73.394;2023-07-30T12:57:48;7.00;6.00;3.00
65574;PMS5003;52216;54.942;73.394;2023-07-30T13:00:51;6.00;5.00;2.00
65574;PMS5003;52216;54.942;73.394;2023-07-30T13:03:53;3.50;3.00;2.00
65574;PMS5003;52216;54.942;73.394;2023-07-30T13:06:57;5.00;5.00;1.00
65574;PMS5003;52216;54.942;73.394;2023-07-30T13:10:04;3.75;3.00;1.00
65574;PMS5003;52216;54.942;73.394;2023-07-30T13:13:07;4.00;4.00;1.00
65574;PMS5003;52216;54.942;73.394;2023-07-30T13:16:10;3.00;3.00;1.00
65574;PMS5003;52216;54.942;73.394;2023-07-30T13:19:13;4.00;4.00;1.00
65574;PMS5003;52216;54.942;73.394;2023-07-30T13:22:15;7.00;7.00;3.25
65574;PMS5003;52216;54.942;73.394;2023-07-30T13:25:17;7.00;7.00;3.00
65574;PMS5003;52216;54.942;73.394;2023-07-30T13:28:20;5.00;5.00;1.25
65574;PMS5003;52216;54.942;73.394;2023-07-30T13:31:23;2.00;2.00;1.00
65574;PMS5003;52216;54.942;73.394;2023-07-30T13:34:26;4.00;4.00;0.00
65574;PMS5003;52216;54.942;73.394;2023-07-30T13:37:31;3.00;3.00;0.00
65574;PMS5003;52216;54.942;73.394;2023-07-30T13:40:34;3.00;3.00;0.00
65574;PMS5003;52216;54.942;73.394;2023-07-30T13:43:37;4.00;4.00;0.00
65574;PMS5003;52216;54.942;73.394;2023-07-30T13:46:40;5.50;5.25;0.75
65574;PMS5003;52216;54.942;73.394;2023-07-30T13:49:43;6.00;6.00;0.00
65574;PMS5003;52216;54.942;73.394;2023-07-30T13:52:46;5.75;5.00;1.00
65574;PMS5003;52216;54.942;73.394;2023-07-30T13:55:50;4.00;4.00;0.00
65574;PMS5003;52216;54.942;73.394;2023-07-30T13:58:54;12.50;11.50;6.75
65574;PMS5003;52216;54.942;73.394;2023-07-30T14:01:56;19.50;17.50;8.50
65574;PMS5003;52216;54.942;73.394;2023-07-30T14:04:59;21.40;20.00;8.20
65574;PMS5003;52216;54.942;73.394;2023-07-30T14:08:02;17.60;17.00;7.00
65574;PMS5003;52216;54.942;73.394;2023-07-30T14:11:04;15.00;15.00;5.00
65574;PMS5003;52216;54.942;73.394;2023-07-30T14:14:07;7.00;6.00;1.33
65574;PMS5003;52216;54.942;73.394;2023-07-30T14:17:10;4.25;3.00;0.00
65574;PMS5003;52216;54.942;73.394;2023-07-30T14:20:14;5.00;4.00;0.00
65574;PMS5003;52216;54.942;73.394;2023-07-30T14:23:19;5.75;5.75;0.00
65574;PMS5003;52216;54.942;73.394;2023-07-30T14:26:21;8.00;6.50;3.00
65574;PMS5003;52216;54.942;73.394;2023-07-30T14:29:31;11.00;10.50;5.00
65574;PMS5003;52216;54.942;73.394;2023-07-30T14:32:38;13.00;12.00;5.00
65574;PMS5003;52216;54.942;73.394;2023-07-30T14:35:41;8.00;6.00;3.00
65574;PMS5003;52216;54.942;73.394;2023-07-30T14:38:49;7.00;6.00;1.00
65574;PMS5003;52216;54.942;73.394;2023-07-30T14:41:52;7.00;6.00;1.00
65574;PMS5003;52216;54.942;73.394;2023-07-30T14:44:54;5.00;5.00;1.00
65574;PMS5003;52216;54.942;73.394;2023-07-30T14:47:57;5.00;4.50;1.00
65574;PMS5003;52216;54.942;73.394;2023-07-30T14:50:59;6.00;6.00;2.00
65574;PMS5003;52216;54.942;73.394;2023-07-30T14:54:01;6.00;6.00;2.00
65574;PMS5003;52216;54.942;73.394;2023-07-30T14:57:41;7.00;6.00;3.00
65574;PMS5003;52216;54.942;73.394;2023-07-30T15:00:43;9.00;9.00;3.00
65574;PMS5003;52216;54.942;73.394;2023-07-30T15:03:45;7.00;6.00;4.00
65574;PMS5003;52216;54.942;73.394;2023-07-30T15:06:47;6.50;5.00;3.00
65574;PMS5003;52216;54.942;73.394;2023-07-30T15:09:51;6.25;6.25;3.00
65574;PMS5003;52216;54.942;73.394;2023-07-30T15:12:54;9.00;9.00;3.00
65574;PMS5003;52216;54.942;73.394;2023-07-30T15:15:56;11.00;11.00;6.00
65574;PMS5003;52216;54.942;73.394;2023-07-30T15:18:58;14.75;12.00;5.00
65574;PMS5003;52216;54.942;73.394;2023-07-30T15:22:00;9.25;6.00;3.00
65574;PMS5003;52216;54.942;73.394;2023-07-30T15:25:03;7.00;7.00;1.50
65574;PMS5003;52216;54.942;73.394;2023-07-30T15:28:06;6.25;6.25;3.00
65574;PMS5003;52216;54.942;73.394;2023-07-30T15:31:08;6.00;6.00;2.25
65574;PMS5003;52216;54.942;73.394;2023-07-30T15:34:10;12.00;11.00;4.00
65574;PMS5003;52216;54.942;73.394;2023-07-30T15:37:13;16.50;15.25;5.00
65574;PMS5003;52216;54.942;73.394;2023-07-30T15:40:16;17.00;16.00;5.00
65574;PMS5003;52216;54.942;73.394;2023-07-30T15:43:18;14.50;12.50;3.25
65574;PMS5003;52216;54.942;73.394;2023-07-30T15:46:20;15.00;11.00;3.00
65574;PMS5003;52216;54.942;73.394;2023-07-30T15:49:22;7.75;6.00;3.00
65574;PMS5003;52216;54.942;73.394;2023-07-30T15:52:24;9.00;7.00;4.00
65574;PMS5003;52216;54.942;73.394;2023-07-30T15:55:26;7.00;7.00;3.00
65574;PMS5003;52216;54.942;73.394;2023-07-30T15:58:29;2.00;2.00;1.00
65574;PMS5003;52216;54.942;73.394;2023-07-30T16:01:31;4.00;3.00;1.00
65574;PMS5003;52216;54.942;73.394;2023-07-30T16:04:34;3.00;2.00;0.00
65574;PMS5003;52216;54.942;73.394;2023-07-30T16:07:37;3.00;3.00;0.00
65574;PMS5003;52216;54.942;73.394;2023-07-30T16:10:40;3.50;2.00;0.00
65574;PMS5003;52216;54.942;73.394;2023-07-30T16:13:43;4.25;3.25;0.00
65574;PMS5003;52216;54.942;73.394;2023-07-30T16:16:46;4.00;3.00;0.00
65574;PMS5003;52216;54.942;73.394;2023-07-30T16:19:50;3.00;3.00;0.00
65574;PMS5003;52216;54.942;73.394;2023-07-30T16:22:53;3.00;3.00;0.00
65574;PMS5003;52216;54.942;73.394;2023-07-30T16:25:55;4.00;3.00;0.00
65574;PMS5003;52216;54.942;73.394;2023-07-30T16:28:57;2.00;2.00;0.00
65574;PMS5003;52216;54.942;73.394;2023-07-30T16:31:59;2.50;2.50;0.00
65574;PMS5003;52216;54.942;73.394;2023-07-30T16:35:02;6.00;6.00;0.00
65574;PMS5003;52216;54.942;73.394;2023-07-30T16:38:07;5.50;5.50;1.00
65574;PMS5003;52216;54.942;73.394;2023-07-30T16:41:09;4.00;4.00;0.67
65574;PMS5003;52216;54.942;73.394;2023-07-30T16:44:11;5.25;5.00;0.00
65574;PMS5003;52216;54.942;73.394;2023-07-30T16:47:13;5.00;5.00;0.00
65574;PMS5003;52216;54.942;73.394;2023-07-30T16:50:15;4.67;4.67;0.00
65574;PMS5003;52216;54.942;73.394;2023-07-30T16:53:17;3.00;3.00;0.00
65574;PMS5003;52216;54.942;73.394;2023-07-30T16:56:19;8.00;7.00;1.00
65574;PMS5003;52216;54.942;73.394;2023-07-30T16:59:22;6.00;6.00;2.00
65574;PMS5003;52216;54.942;73.394;2023-07-30T17:02:24;4.50;4.00;1.00
65574;PMS5003;52216;54.942;73.394;2023-07-30T17:05:25;7.00;4.50;1.00
65574;PMS5003;52216;54.942;73.394;2023-07-30T17:08:27;8.25;8.00;2.75
65574;PMS5003;52216;54.942;73.394;2023-07-30T17:11:29;8.00;8.00;4.00
65574;PMS5003;52216;54.942;73.394;2023-07-30T17:14:32;7.00;7.00;3.00
65574;PMS5003;52216;54.942;73.394;2023-07-30T17:17:35;7.00;7.00;2.50
65574;PMS5003;52216;54.942;73.394;2023-07-30T17:20:37;5.00;5.00;2.00
65574;PMS5003;52216;54.942;73.394;2023-07-30T17:24:00;4.00;4.00;1.50
65574;PMS5003;52216;54.942;73.394;2023-07-30T17:27:04;10.67;9.00;5.00
65574;PMS5003;52216;54.942;73.394;2023-07-30T17:30:06;12.25;11.00;4.00
65574;PMS5003;52216;54.942;73.394;2023-07-30T17:33:09;9.00;8.75;4.00
65574;PMS5003;52216;54.942;73.394;2023-07-30T17:36:11;10.00;10.00;3.00
65574;PMS5003;52216;54.942;73.394;2023-07-30T17:39:14;8.00;8.00;2.00